Create Custom Reports and Graphics: Custom Report

Latest Observations

Map

10 Minute Data

Latest Observations

Map

10 Minute Data

Latest Observations

Map

10 Minute Data

Latest Observation

65 Stations

10 Minute Data
as of 6/26/22 7:16 AM PDT
Station Date Time Temp (°F) RH (%) Dew Pt (°F) Wind Spd (mph) Wind Dir (°) Wind Gust (mph) Wind Gst Dir (°) Latest Rain (In) Soil Moist (%) Soil Temp (°F) Daily Rain (In) Daily Min Temp (°F) Daily Max Temp (°F) Daily Max Wind (mph)
Hobart Mills 12/28/21 1450 24.4 84 20.1 2.4 SW | 216 7.0 SW | 235 0.00 30.9 37.1 0.57 20.2 38.1 29.4
West Incline Village 6/26/22 0710 56.1   1.5 51   2 38.2   2.5 1.9   0.9 NE | 36 2.4   0.9 NE | 39 0.00 22.4   0.4 58.3   0.5 0.00 55.7   2.1 62.5   1.6 4.0   2.4
Incline Village (Fairview Blvd) 6/26/22 0710 57.1   1.2 51   10 39.0   4.7 0.0   1.3 N | 0 0.0   3.0 ENE | 59 0.00 15.6   0.3 61.4   1.0 0.00 55.6   1.0 64.8   2.7 3.7   0.4
Incline Village (Diamond Peak) 6/26/22 0710 62.5   1.6 39   8 37.2   7.1 0.0   6.2 N | 0 0.0   12.4 E | 92 0.00 - 34.6   0.0 0.00 58.1   0.1 63.3   0.7 4.6   9.6
Incline Village (Mill Creek) 6/26/22 0710 54.1   0.2 61   10 41.0   4.4 0.0   0.0 N | 0 0.0   0.0 SSW | 194 0.00 7.0   0.1 57.7   0.6 0.00 53.9   0.8 60.4   0.8 2.5   0.4
Incline Village (Lakeshore Blvd) 6/26/22 0710 51.5   0.9 72   1 42.7   0.6 0.0   0.1 N | 0 0.0   1.9 NE | 41 0.00 - - 0.00 46.8   1.1 53.7   1.8 2.7   1.1
Glenbrook 6/26/22 0710 50.0   0.6 72   2 41.2   1.5 0.2   0.2 ENE | 57 1.0   1.0 NE | 48 0.00 36.3   0.2 53.3   0.3 0.00 49.1   0.6 54.5   1.1 3.5   0.4
Zephyr Cove 12/28/21 1620 - 100   6 58.3   39.3 0.4   0.5 WNW | 299 2.0   2.5 W | 279 0.00 13.6   0.3 36.7   0.1 0.01 20.0   0.3 23.7   0.0 12.9   0.0
Kingsbury Grade 6/26/22 0710 52.4   2.2 63   9 40.2   1.9 0.2   0.6 NNE | 12 2.4   0.5 N | 9 0.00 4.2   0.0 64.2   0.5 0.00 51.3   1.9 54.9   0.1 5.3   0.7
South Daggett Pass (Ridge) 12/31/21 2350 11.1   12.3 76   3 5.1   12.9 5.9   4.8 SE | 133 10.2   19.5 SSE | 153 0.00 9.8   0.0 36.8   0.1 0.00 11.0   6.9 26.6   0.2 36.1   2.2
Peavine 6/26/22 0710 68.6   4.6 34   4 38.9   7.2 0.2   0.2 SW | 223 1.6   1.6 SW | 231 0.00 9.8   0.1 57.8   0.8 0.00 58.7   3.8 69.7   4.5 10.3   0.8
Northwest Reno 6/26/22 0710 66.1   0.3 37   7 39.3   5.3 1.1   0.9 E | 97 3.1   1.1 E | 79 0.00 28.2   0.0 74.6   1.2 0.00 64.4   2.8 75.6   5.1 11.8   2.6
West Verdi 6/26/22 0710 58.5   2.2 58   7 44.0   5.2 0.5   0.3 ENE | 63 1.9   0.5 ENE | 57 0.00 17.7   0.1 75.6   0.2 0.00 55.3   2.8 66.1   2.4 8.6   0.6
West Reno (Mogul) 6/26/22 0710 62.0   0.6 50   11 43.0   6.9 0.9   3.2 W | 278 6.5   0.1 NNW | 336 0.00 25.1   0.1 72.6   0.8 0.00 59.4   3.6 71.4   3.1 13.7   3.7
Caughlin (Hunter Lake Trail) 6/26/22 0710 68.8   4.8 37   4 41.6   7.1 0.0   0.0 N | 0 0.0   0.0 ESE | 116 0.00 16.3   0.0 71.8   0.8 0.00 64.3   2.3 70.7   0.2 10.2   0.5
ArrowCreek 6/26/22 0710 68.8   5.1 37   0 41.3   4.7 2.2   0.1 ESE | 104 4.6   0.7 E | 79 0.00 12.4   0.1 67.5   1.0 0.00 61.2   2.5 72.2   5.9 10.8   1.9
Virginia Highlands 6/26/22 0710 71.1   6.6 29   4 37.3   9.3 0.0   2.1 NE | 54 0.6   3.1 NE | 54 0.00 6.7   0.1 68.4   0.8 0.00 63.5   1.8 72.1   4.5 9.1   3.4
Mt Rose Highway 6/26/22 0710 64.2   3.7 37   1 37.3   2.8 1.3   1.1 SSW | 212 3.7   2.1 SW | 224 0.00 9.6   0.2 60.8   0.5 0.00 60.0   2.2 64.6   2.9 10.2   4.6
New Washoe City 6/26/22 0710 62.8   1.6 42   6 39.6   5.0 0.0   3.3 N | 0 0.0   5.2 ENE | 67 0.00 3.6   0.0 69.9   0.8 0.00 57.0   1.1 64.5   1.9 11.0   2.0
Franktown Creek 6/26/22 0710 61.8   4.9 59   4 47.3   6.7 0.1   0.1 ENE | 61 1.1   1.1 ENE | 62 0.00 9.0   0.2 69.4   1.2 0.00 51.8   1.8 63.1   2.6 3.7   1.5
Musgrove Creek 6/26/22 0710 66.7   0.7 42   1 43.0   0.1 0.0   0.0 N | 0 0.0   1.1 S | 179 0.00 28.9   0.3 60.7   0.4 0.00 61.7   0.2 67.5   0.6 3.1   0.0
Carson City (Voltaire Canyon) 6/26/22 0710 64.7   1.8 41   0 40.2   1.9 3.0   1.0 SSE | 162 5.6   2.5 S | 172 0.00 2.5   0.0 73.3   0.9 0.00 63.3   0.7 73.7   0.9 15.2   4.2
Genoa 6/26/22 0710 60.2   1.7 56   9 44.7   3.2 0.7   0.7 ESE | 123 2.4   2.4 SE | 131 0.00 6.4   0.0 72.0   0.7 0.00 56.4   0.1 64.9   0.7 4.5   2.9
South Genoa (Walleys Hot Springs) 6/26/22 0710 55.6   1.4 75   12 47.6   3.2 0.0   0.0 N | 0 0.0   0.0 NE | 53 0.00 4.7   1.0 73.8   0.6 0.00 51.0   3.1 64.3   0.1 6.5   0.4
SW Gardnerville (HWY 88) 6/26/22 0710 55.6   2.2 65   7 44.0   0.5 1.4   0.4 NNE | 26 3.2   1.1 N | 3 0.00 2.9   0.0 67.4   0.6 0.00 49.3   1.8 65.2   6.3 6.2   2.5
North Topaz Lake 6/26/22 0710 65.2   1.1 35   2 37.2   2.1 0.4   3.0 W | 260 1.7   3.2 W | 272 0.00 - - 0.00 64.2   1.3 70.0   0.2 6.6   1.0
Reid Gardner Sub 6/26/22 0710 79.7   4.5 23   4 38.8   8.3 1.5   0.6 W | 279 3.1   0.9 NW | 310 0.00 - 84.1   0.8 0.00 71.2   5.3 83.8   1.4 5.8   1.6
Corn Creek 6/26/22 0710 82.2   1.3 18   4 35.2   7.3 4.1   1.4 NNW | 345 6.0   1.7 NNW | 348 0.00 2.7   0.1 87.5   2.5 0.00 78.4   5.0 87.3   6.1 13.7   3.2
Lucky Strike 6/26/22 0710 76.7   1.8 22   8 35.5   9.3 2.8   1.3 ESE | 114 6.5   0.2 E | 91 0.00 3.6   0.0 77.1   0.5 0.00 71.4   1.3 78.8   0.4 14.2   3.1
Lower Angel Peak 6/26/22 0710 73.7   1.4 19   3 29.2   5.0 0.6   0.1 NE | 49 2.6   0.6 NNE | 15 0.00 2.3   0.1 72.9   1.3 0.00 65.3   5.1 74.5   0.9 9.9   0.6
Angel Peak 6/26/22 0710 63.9   4.0 21   1 23.8   4.8 6.5   2.6 SE | 139 11.3   1.5 ESE | 119 0.00 - 32.0   0.0 0.00 61.2   2.3 64.5   3.1 17.0   2.9
Upper Kyle Canyon 6/26/22 0710 61.9   3.1 25   8 25.7   6.4 5.7   3.5 NNW | 343 7.6   2.6 NNW | 342 0.00 12.4   0.0 73.1   2.0 0.00 57.7   2.5 65.1   0.5 9.9   0.2
Mt Charleston 6/26/22 0710 64.9   1.6 25   3 28.7   3.9 4.2   3.3 WNW | 292 7.0   3.6 NW | 311 0.00 0.0   0.0 63.9   3.5 0.00 61.5   4.0 67.6   2.5 10.6   2.0
Mid Kyle Canyon 6/26/22 0710 74.0   3.6 20   1 30.6   4.7 5.5   0.5 WNW | 295 8.8   0.4 WNW | 291 0.00 3.8   0.1 71.8   0.8 0.00 63.5   2.0 74.4   3.3 16.8   0.6
Blue Diamond 6/26/22 0710 75.3   0.5 20   2 31.2   2.9 0.5   0.6 ENE | 66 2.0   0.6 ENE | 75 0.00 0.2   0.1 83.1   1.0 0.00 66.3   0.3 78.0   1.3 9.8   1.0
Artesian Sub 6/26/22 0710 86.4   3.3 22   2 43.2   5.6 1.2   1.2 NW | 317 2.7   2.4 NW | 308 0.00 8.0   0.0 89.4   0.8 0.00 83.8   5.9 92.6   4.7 6.5   1.2
North Henderson 6/26/22 0710 86.0   1.8 25   10 46.6   14.0 2.7   1.3 NNW | 347 4.2   1.1 N | 355 0.00 - - 0.00 82.7   2.8 94.3   6.9 12.7   6.6
Sandy Valley 6/26/22 0710 79.7   1.1 17   1 31.2   2.0 2.4   1.9 ENE | 76 4.5   2.2 E | 89 0.00 5.6   0.1 84.0   3.3 0.00 74.2   5.5 88.4   1.8 11.8   0.2
Searchlight 6/26/22 0710 79.5   1.2 23   6 38.2   5.9 3.9   0.7 N | 6 5.6   2.0 N | 5 0.00 3.1   0.1 87.2   1.8 0.00 71.7   0.2 83.5   2.0 15.2   5.0
Laughlin 6/26/22 0710 90.9   2.7 31   15 55.9   19.6 0.0   0.0 N | 0 0.0   0.0 SSE | 154 0.00 3.8   0.0 94.7   0.4 0.00 89.5   5.2 97.9   3.4 10.8   1.6
South Elko 6/26/22 0710 64.0   6.4 19   6 20.5   1.3 1.6   2.7 NE | 52 4.3   3.9 ENE | 72 0.00 6.2   0.0 70.2   2.5 0.00 57.0   3.5 66.6   7.6 15.5   1.0
Paradise Hill 6/26/22 0710 64.6   0.2 26   2 29.3   2.1 1.2   15.2 SSW | 195 3.1   18.0 ESE | 120 0.00 11.3   0.1 70.8   2.1 0.00 54.9   3.2 74.1   9.2 17.1   5.1
Virginia City 6/26/22 0710 70.2   5.1 26   1 33.6   3.5 0.8   0.8 NNE | 23 1.7   0.6 NNE | 32 0.00 4.3   0.0 70.7   0.6 0.00 66.1   3.2 70.7   2.0 8.8   2.5
Lamoille 6/26/22 0710 58.6   8.4 47   3 38.6   9.2 4.2   1.5 WSW | 253 6.8   2.1 WSW | 241 0.00 7.0   1.0 65.6   1.1 0.00 50.5   2.8 60.6   4.6 7.8   1.6
NE Elko 6/26/22 0710 57.8   2.2 25   5 22.4   2.5 5.7   2.1 E | 90 8.6   2.1 ESE | 106 0.00 5.1   0.1 70.6   2.3 0.00 54.3   5.8 66.6   10.0 9.9   1.7
Six Mile Canyon 6/26/22 0710 64.9   1.3 39   6 39.4   5.2 2.1   0.7 NNE | 17 4.5   1.0 N | 10 0.00 5.5   0.0 76.0   0.9 0.00 62.4   2.6 74.6   5.6 8.1   2.4
North Elko 6/26/22 0710 60.5   4.8 22   4 21.3   0.1 2.2   4.0 NW | 318 5.0   4.1 WNW | 299 0.00 18.4   0.0 70.8   1.7 0.00 57.0   5.4 70.4   7.8 19.2   6.2
Winnemucca 6/26/22 0710 66.2   6.6 23   10 27.1   2.9 10.6   0.2 NNE | 32 14.9   0.1 NE | 38 0.00 5.9   0.1 74.3   2.4 0.00 59.2   3.4 71.0   7.3 17.4   0.6
Max     90.9 75 55.9 10.6 - 14.9 - 0.00 36.3 94.7 0.00 89.5 97.9 19.2
Avg     66.4 37 37.2 1.9 - 3.6 - 0.00 9.7 69.9 - - - -
Min     50.0 17 20.5 0.0 - 0.0 - 0.00 0.0 32.0 0.00 46.8 53.7 2.5

Latest Observation

65 Stations

Daily Data
as of 6/26/22 7:16 AM PDT
Station Date Daily Max Temp (°F) Daily Min Temp (°F) Max RH (%) Min RH (%) Wind Spd (mph) Wind Dir (°) Daily Max Wind (mph) Max Wind Dir (°) Time of Max Wind Daily Rain (In) Weekly Precip (In) Seasonal Rainfall (In) Soil Moist (%) Fuel Temp (°F) Fuel Moisture (%) MinBV Day (V)
Hobart Mills 12/22/21 39.2   8.4 29.8   13.2 100   8 39   24 1.9   0.6 SW | 215 26.3   6.5 SW | 222 2219 0.90 1.97 19.10 35.8   5.9 - - 10.8   0.2
West Incline Village 6/25/22 75.3   2.0 53.5   3.8 52   19 22   9 3.1   1.7 NE | 41 18.1   5.2 S | 182 1449 0.00 0.00 2.99 22.5   0.3 - - 12.8   0.0
Incline Village (Fairview Blvd) 6/25/22 78.1   2.5 54.6   5.1 47   26 20   3 1.1   0.2 WNW | 290 11.6   2.0 SSE | 165 1104 0.00 0.00 0.04 15.8   0.3 -13.6   0.1 - 12.3   0.0
Incline Village (Diamond Peak) 6/25/22 75.7   1.4 58.3   5.7 47   17 21   3 0.0   0.1 ESE | 116 18.4   6.0 E | 80 0822 0.00 0.00 14.30 - - - 12.8   0.0
Incline Village (Mill Creek) 6/25/22 77.5   0.6 53.1   4.0 68   15 20   5 1.4   0.3 W | 277 21.2   8.4 N | 354 1315 0.00 0.00 0.04 7.0   0.1 -8.3   0.1 - 12.6   0.0
Incline Village (Lakeshore Blvd) 6/25/22 73.7   0.2 45.7   2.4 80   10 27   4 0.6   0.2 SW | 217 8.6   3.5 S | 172 1308 0.00 0.00 2.48 - - - 12.5   0.0
Glenbrook 6/25/22 74.3   1.6 48.5   3.7 78   14 24   4 2.1   0.7 WSW | 248 29.9   23.5 W | 265 1530 0.00 0.00 1.68 36.4   0.2 - - 12.6   0.0
Zephyr Cove 12/26/21 22.0   8.1 15.1   5.8 95   2 78   6 1.4   0.1 ESE | 123 17.0   1.9 NE | 55 0140 0.00 1.07 12.84 14.1   0.3 - - 11.0   0.1
Kingsbury Grade 6/25/22 76.4   1.3 49.4   4.1 57   16 21   5 2.6   1.0 NE | 48 20.4   7.6 ESE | 118 1104 0.00 0.00 3.34 4.2   0.0 - - 12.6   0.0
South Daggett Pass (Ridge) 12/30/21 26.9   2.6 17.8   1.4 98   2 71   24 6.1   6.1 WNW | 284 38.4   38.4 NW | 317 1649 0.00 0.00 8.25 9.8   0.1 - - 11.4   0.2
Peavine 6/25/22 82.5   4.3 55.0   2.0 50   4 17   1 5.7   1.8 S | 190 34.4   0.1 SW | 214 1611 0.00 0.00 0.39 9.8   0.0 - - 12.7   0.0
Northwest Reno 6/25/22 87.7   2.7 61.6   4.6 38   25 14   1 8.9   1.9 N | 2 46.4   17.6 W | 268 1612 0.00 0.03 0.68 28.2   0.1 - - 12.7   0.0
West Verdi 6/25/22 85.7   1.5 52.4   0.1 57   8 16   2 4.4   0.5 NW | 315 26.6   9.4 W | 266 1705 0.00 0.00 5.01 17.6   0.1 - - 12.7   0.0
West Reno (Mogul) 6/25/22 85.6   0.5 55.8   1.5 48   11 15   3 6.4   2.3 WNW | 302 28.6   9.3 SW | 219 1556 0.00 0.00 4.36 25.0   0.1 - - 12.7   0.0
Caughlin (Hunter Lake Trail) 6/25/22 85.9   1.3 62.0   4.6 39   18 14   1 5.1   0.4 S | 188 34.5   6.5 WSW | 238 1559 0.01 0.03 34.00 16.2   0.1 - - 12.7   0.0
ArrowCreek 6/25/22 86.6   2.5 58.7   4.2 41   16 15   1 5.0   0.1 S | 178 35.5   10.3 SSW | 206 1733 0.00 0.00 2.70 12.4   0.0 - - 12.5   0.0
Virginia Highlands 6/25/22 82.7   1.3 61.7   4.7 32   20 16   4 4.1   0.5 S | 191 23.4   4.6 W | 269 1802 0.00 0.00 0.65 6.7   0.0 - - 12.7   0.0
Mt Rose Highway 6/25/22 77.8   0.4 57.8   2.7 40   4 19   5 3.0   0.7 SW | 221 31.8   17.3 WSW | 251 1559 0.00 0.00 24.26 9.7   0.1 - - 12.7   0.0
New Washoe City 6/25/22 86.6   2.3 56.0   4.8 40   20 15   6 5.0   0.1 W | 278 30.4   8.7 SW | 217 1539 0.00 0.00 0.65 3.6   0.0 - - 12.7   0.0
Franktown Creek 6/25/22 85.7   1.6 50.0   1.9 64   4 16   4 1.8   0.3 WSW | 257 24.2   7.4 WNW | 285 1535 0.00 0.00 3.31 8.8   0.0 - - 12.8   0.0
Musgrove Creek 6/25/22 82.0   1.0 61.5   4.0 52   6 17   2 1.7   0.4 WSW | 242 17.3   1.9 SSW | 193 1602 0.00 0.00 3.99 29.0   0.2 - - 12.7   0.0
Carson City (Voltaire Canyon) 6/25/22 85.8   0.6 62.6   4.5 42   8 15   6 7.2   1.2 WSW | 245 40.0   17.6 S | 191 1749 0.00 0.00 0.29 2.5   0.0 - - 12.8   0.0
Genoa 6/25/22 86.2   0.5 56.3   5.6 55   13 16   4 0.9   0.3 SSW | 200 18.4   1.5 NE | 46 1530 0.00 0.02 2.71 6.4   0.0 - - 12.6   0.0
South Genoa (Walleys Hot Springs) 6/25/22 85.7   0.2 47.9   1.4 83   6 17   4 4.1   0.7 S | 191 35.4   7.7 WSW | 245 1542 0.00 0.00 1.94 3.9   0.0 - - 12.7   0.0
SW Gardnerville (HWY 88) 6/25/22 84.5   1.2 47.5   2.2 81   5 18   2 5.8   0.3 W | 266 37.0   13.2 SSW | 192 1437 0.00 0.00 0.79 2.9   0.0 - - 12.6   0.0
North Topaz Lake 6/25/22 82.6   1.7 62.9   4.0 37   10 16   2 4.8   0.4 SW | 228 35.8   14.3 S | 182 1628 0.00 0.00 0.78 - - - 12.8   0.0
Reid Gardner Sub 6/25/22 105.7   2.0 65.9   3.2 31   7 8   0 3.5   0.7 SW | 221 21.6   3.0 SE | 127 2047 0.00 0.00 0.00 - 94.8   2.0 2   0 12.8   0.0
Corn Creek 6/25/22 99.5   2.3 73.4   2.0 18   14 9   0 8.0   1.2 SE | 136 27.8   7.6 E | 94 1617 0.00 62.22 - 2.7   0.0 - - 12.8   0.0
Lucky Strike 6/25/22 88.2   2.5 72.7   4.1 20   15 12   1 8.6   1.1 SSE | 151 28.8   5.7 ESE | 106 1217 0.00 0.00 0.26 3.7   0.0 84.5   1.2 2   1 12.8   0.0
Lower Angel Peak 6/25/22 84.1   3.4 60.2   1.3 25   19 13   2 5.0   0.4 SSW | 209 26.6   8.2 NNE | 12 1156 0.00 0.00 0.00 2.3   0.0 78.2   1.2 2   1 12.8   0.0
Angel Peak 6/25/22 72.8   2.2 58.8   4.6 26   27 18   5 10.3   5.5 SSE | 149 31.0   3.7 ESE | 123 1259 0.00 0.03 4.00 - - - 12.7   0.0
Upper Kyle Canyon 6/25/22 76.5   3.8 55.2   2.6 29   23 14   1 4.4   0.4 N | 10 23.6   1.9 ESE | 120 1318 0.00 0.08 0.70 12.4   0.0 74.6   3.4 5   2 12.8   0.0
Mt Charleston 6/25/22 77.4   3.6 57.5   3.5 28   24 15   1 3.1   0.8 W | 268 20.1   1.2 ESE | 111 1207 0.00 0.13 2.23 0.0   0.0 - - 12.7   0.0
Mid Kyle Canyon 6/25/22 84.0   1.7 61.5   3.9 25   19 13   3 8.7   0.6 SW | 233 26.8   0.5 S | 182 1515 0.00 0.01 0.01 3.8   0.0 - - 12.9   0.0
Blue Diamond 6/25/22 97.3   1.9 66.0   1.1 27   19 9   0 4.3   2.1 N | 351 21.4   2.4 ESE | 107 1527 0.00 0.03 0.03 0.2   0.0 89.3   1.0 3   1 12.7   0.0
Artesian Sub 6/25/22 106.1   0.9 77.9   2.1 24   9 10   2 2.8   0.8 NE | 54 14.2   6.6 E | 95 2307 0.00 0.00 0.09 8.0   0.1 99.8   1.5 0   0 12.8   0.0
North Henderson 6/25/22 106.9   2.1 79.9   0.7 19   9 10   3 4.2   0.8 ENE | 69 15.6   7.1 NNW | 344 1647 0.00 0.00 3.22 - - - 12.7   0.0
Sandy Valley 6/25/22 101.0   3.5 68.7   1.2 24   20 9   1 4.3   0.6 E | 82 22.2   0.9 SE | 141 1227 0.00 0.12 0.17 5.6   0.1 92.2   3.2 2   1 12.8   0.0
Searchlight 6/25/22 97.5   1.1 71.9   1.9 35   1 10   1 6.2   1.4 SSE | 152 25.1   3.7 S | 180 1307 0.00 0.01 0.21 3.1   0.0 90.3   1.1 2   1 12.8   0.0
Laughlin 6/25/22 110.4   1.2 84.3   0.6 28   2 9   1 5.1   0.9 SSW | 195 22.2   2.5 SSE | 147 1405 0.00 0.00 0.06 3.8   0.0 - - 12.7   0.0
South Elko 6/25/22 84.9   4.0 53.5   0.4 32   25 13   1 6.8   0.5 NNE | 23 27.2   0.1 NE | 52 2125 0.00 0.00 0.02 6.2   0.1 76.1   3.9 0   0 12.8   0.0
Paradise Hill 6/25/22 89.1   3.9 51.8   4.0 36   36 14   0 10.5   2.2 NE | 41 29.2   2.2 NE | 42 1607 0.00 0.00 0.52 11.3   0.0 83.6   4.3 2   1 12.8   0.0
Virginia City 6/25/22 81.4   1.7 62.9   4.2 30   18 15   6 5.1   0.1 NNW | 339 30.3   7.3 S | 186 1815 0.00 0.00 0.03 4.3   0.0 75.5   0.4 - 12.8   0.1
Lamoille 6/25/22 81.6   2.8 47.8   1.9 53   14 14   2 3.5   2.1 ENE | 57 13.5   15.7 NNE | 33 2029 0.00 0.00 0.51 6.1   1.3 69.4   1.9 6   0 12.7   0.0
NE Elko 6/25/22 87.6   4.4 48.6   2.4 42   25 12   4 4.9   1.3 N | 8 19.1   6.7 NNE | 17 1430 0.00 0.09 0.30 5.1   0.0 75.9   4.6 2   1 12.7   0.0
Six Mile Canyon 6/25/22 89.9   6.1 59.9   2.6 35   20 12   5 5.3   0.3 N | 353 28.6   7.7 SW | 217 1541 0.00 0.00 0.00 5.6   0.0 79.4   1.9 - 12.8   0.0
North Elko 6/25/22 85.4   3.5 51.6   2.7 33   21 12   1 7.6   0.3 NNE | 22 25.3   2.7 NE | 36 2141 0.00 0.00 0.02 18.3   0.0 - - 12.7   0.0
Winnemucca 6/25/22 89.1   4.3 55.8   0.5 34   16 11   4 8.6   1.7 NNE | 32 25.3   3.6 NNE | 22 1321 0.00 0.00 0.84 5.8   0.0 80.1   2.2 2   1 12.8   0.0
Max   110.4 84.3 83 27 10.5 - 46.4 - - 0.01 - 34.00 36.4 99.8 6 12.9
Avg   - - - - 4.8 - - - - - - - 9.7 71.9 2 -
Min   72.8 45.7 18 8 0.0 - 8.6 - - 0.00 - 0.00 0.0 -13.6 0 12.3

Fosberg 6Hr Max

Map

Hourly Data

Fosberg 6Hr Max

Map

Hourly Data